createdAt,value
2023-04-26T00:01:58.738Z,81.10
2023-04-26T00:04:25.874Z,81.10
2023-04-26T00:06:52.773Z,81.20
2023-04-26T00:09:19.707Z,81.40
2023-04-26T00:11:46.677Z,81.50
2023-04-26T00:14:13.724Z,81.60
2023-04-26T00:16:40.490Z,81.70
2023-04-26T00:19:07.282Z,81.80
2023-04-26T00:21:34.123Z,82.40
2023-04-26T00:24:00.892Z,81.90
2023-04-26T00:26:27.684Z,82.50
2023-04-26T00:28:54.806Z,82.10
2023-04-26T00:31:21.887Z,82.20
2023-04-26T00:33:48.731Z,82.30
2023-04-26T00:36:19.137Z,82.30
2023-04-26T00:38:46.795Z,82.30
2023-04-26T00:41:13.869Z,82.40
2023-04-26T00:43:41.094Z,82.40
2023-04-26T00:46:11.368Z,82.60
2023-04-26T00:48:38.205Z,82.60
2023-04-26T00:51:06.082Z,82.60
2023-04-26T00:53:34.147Z,82.60
2023-04-26T00:56:01.038Z,82.70
2023-04-26T00:58:27.985Z,82.70
2023-04-26T01:00:55.314Z,82.80
2023-04-26T01:03:22.182Z,82.80
2023-04-26T01:05:49.138Z,82.90
2023-04-26T01:08:20.610Z,83.00
2023-04-26T01:10:48.535Z,83.00
2023-04-26T01:13:15.636Z,83.20
2023-04-26T01:15:48.731Z,83.30
2023-04-26T01:18:15.588Z,83.40
2023-04-26T01:20:43.053Z,83.30
2023-04-26T01:23:10.489Z,83.40
2023-04-26T01:25:38.827Z,83.40
2023-04-26T01:28:05.643Z,83.40
2023-04-26T01:30:32.515Z,83.30
2023-04-26T01:33:03.534Z,83.30
2023-04-26T01:35:30.597Z,83.40
2023-04-26T01:37:57.410Z,83.40
2023-04-26T01:40:24.292Z,83.50
2023-04-26T01:42:51.131Z,83.40
2023-04-26T01:45:18.102Z,83.50
2023-04-26T01:48:03.830Z,83.50
2023-04-26T01:50:32.535Z,83.50
2023-04-26T01:52:59.290Z,83.60
2023-04-26T01:55:26.140Z,83.70
2023-04-26T01:57:52.963Z,83.80
2023-04-26T02:00:20.377Z,83.90
2023-04-26T02:02:49.441Z,84.00
2023-04-26T02:05:16.529Z,84.00
2023-04-26T02:07:43.337Z,84.00
2023-04-26T02:10:10.474Z,84.10
2023-04-26T02:12:37.335Z,84.20
2023-04-26T02:15:04.790Z,84.20
2023-04-26T02:17:31.893Z,84.20
2023-04-26T02:19:58.761Z,84.20
2023-04-26T02:22:25.658Z,84.20
2023-04-26T02:24:52.969Z,84.10
2023-04-26T02:27:20.017Z,84.10
2023-04-26T02:29:47.308Z,84.10
2023-04-26T02:32:14.448Z,84.70
2023-04-26T02:34:41.723Z,84.10
2023-04-26T02:37:08.993Z,84.00
2023-04-26T02:39:36.149Z,84.00
2023-04-26T02:42:03.232Z,84.00
2023-04-26T02:44:31.043Z,84.00
2023-04-26T02:46:58.204Z,83.90
2023-04-26T02:49:25.118Z,83.90
2023-04-26T02:51:52.052Z,83.80
2023-04-26T02:54:19.065Z,83.80
2023-04-26T02:56:45.983Z,83.80
2023-04-26T02:59:12.779Z,83.70
2023-04-26T03:01:39.633Z,83.80
2023-04-26T03:04:06.978Z,83.60
2023-04-26T03:06:35.491Z,83.70
2023-04-26T03:09:02.330Z,83.60
2023-04-26T03:11:29.199Z,83.50
2023-04-26T03:13:56.766Z,83.40
2023-04-26T03:16:23.870Z,83.50
2023-04-26T03:18:51.040Z,83.30
2023-04-26T03:21:18.059Z,83.30
2023-04-26T03:23:45.318Z,83.30
2023-04-26T03:26:13.075Z,83.30
2023-04-26T03:28:41.666Z,83.30
2023-04-26T03:31:08.472Z,83.30
2023-04-26T03:33:35.424Z,83.30
2023-04-26T03:36:02.365Z,83.20
2023-04-26T03:38:29.254Z,83.20
2023-04-26T03:40:55.998Z,83.20
2023-04-26T03:43:23.711Z,83.20
2023-04-26T03:45:51.059Z,83.20
2023-04-26T03:48:17.897Z,83.20
2023-04-26T03:50:45.917Z,83.20
2023-04-26T03:53:12.918Z,83.20
2023-04-26T03:55:40.850Z,83.20
2023-04-26T03:58:08.100Z,83.30
2023-04-26T04:00:37.507Z,83.30
2023-04-26T04:03:05.131Z,83.40
2023-04-26T04:05:32.405Z,83.40
2023-04-26T04:07:59.578Z,83.40
2023-04-26T04:10:26.454Z,83.50
2023-04-26T04:12:54.205Z,83.50
2023-04-26T04:15:21.313Z,83.50
2023-04-26T04:17:49.196Z,83.60
2023-04-26T04:20:16.364Z,83.60
2023-04-26T04:22:43.669Z,83.60
2023-04-26T04:25:10.620Z,83.70
2023-04-26T04:27:38.711Z,83.80
2023-04-26T04:30:07.798Z,83.90
2023-04-26T04:32:36.076Z,84.00
2023-04-26T04:35:03.288Z,84.00
2023-04-26T04:37:32.881Z,84.10
2023-04-26T04:40:00.253Z,84.20
2023-04-26T04:42:28.140Z,84.20
2023-04-26T04:44:57.578Z,84.10
2023-04-26T04:47:25.783Z,84.10
2023-04-26T04:49:53.813Z,84.10
2023-04-26T04:52:21.842Z,84.10
2023-04-26T04:54:48.930Z,84.10
2023-04-26T04:57:16.767Z,84.00
2023-04-26T04:59:45.092Z,84.10
2023-04-26T05:02:12.217Z,84.10
2023-04-26T05:04:39.533Z,84.10
2023-04-26T05:07:06.880Z,84.10
2023-04-26T05:09:35.290Z,84.00
2023-04-26T05:12:03.376Z,84.00
2023-04-26T05:14:31.244Z,84.00
2023-04-26T05:16:58.480Z,84.10
2023-04-26T05:19:26.176Z,84.10
2023-04-26T05:21:53.194Z,84.10
2023-04-26T05:24:20.026Z,84.10
2023-04-26T05:26:46.954Z,84.60
2023-04-26T05:29:20.185Z,83.90
2023-04-26T05:31:59.030Z,83.90
2023-04-26T05:34:51.976Z,83.80
2023-04-26T05:37:18.835Z,83.80
2023-04-26T05:39:45.838Z,83.70
2023-04-26T05:42:12.792Z,83.70
2023-04-26T05:44:40.706Z,83.70
2023-04-26T05:47:08.200Z,83.40
2023-04-26T05:49:34.968Z,83.30
2023-04-26T05:52:03.562Z,83.20
2023-04-26T05:54:30.630Z,83.00
2023-04-26T05:56:59.129Z,82.90
2023-04-26T05:59:27.842Z,82.70
2023-04-26T06:01:54.843Z,82.40
2023-04-26T06:04:21.932Z,82.10
2023-04-26T06:07:01.360Z,82.50
2023-04-26T06:09:28.278Z,81.70
2023-04-26T06:11:55.088Z,81.50
2023-04-26T06:14:29.848Z,81.10
2023-04-26T06:16:59.327Z,80.80
2023-04-26T06:19:28.173Z,80.60
2023-04-26T06:21:57.067Z,80.40
2023-04-26T06:24:25.800Z,80.10
2023-04-26T06:26:52.797Z,79.80
2023-04-26T06:29:21.094Z,79.50
2023-04-26T06:31:48.428Z,79.30
2023-04-26T06:34:15.378Z,79.10
2023-04-26T06:36:42.553Z,78.80
2023-04-26T06:39:10.926Z,79.10
2023-04-26T06:41:38.815Z,78.40
2023-04-26T06:44:05.602Z,78.20
2023-04-26T06:46:32.782Z,78.00
2023-04-26T06:48:59.676Z,77.70
2023-04-26T06:51:26.988Z,77.40
2023-04-26T06:53:53.974Z,77.20
2023-04-26T06:56:21.058Z,76.90
2023-04-26T06:59:02.648Z,76.70
2023-04-26T07:01:29.867Z,76.50
2023-04-26T07:03:59.669Z,76.40
2023-04-26T07:06:26.619Z,76.10
2023-04-26T07:08:53.671Z,75.80
2023-04-26T07:11:21.645Z,75.50
2023-04-26T07:13:49.138Z,75.20
2023-04-26T07:16:15.938Z,74.70
2023-04-26T07:18:42.915Z,74.40
2023-04-26T07:21:09.791Z,74.20
2023-04-26T07:23:36.656Z,74.00
2023-04-26T07:26:04.464Z,73.70
2023-04-26T07:28:33.963Z,73.90
2023-04-26T07:31:01.526Z,73.20
2023-04-26T07:33:30.429Z,73.30
2023-04-26T07:35:58.730Z,73.20
2023-04-26T07:38:25.578Z,73.00
2023-04-26T07:40:52.830Z,72.70
2023-04-26T07:43:20.443Z,72.50
2023-04-26T07:45:47.319Z,72.20
2023-04-26T07:48:14.188Z,71.90
2023-04-26T07:50:41.144Z,71.70
2023-04-26T07:53:08.130Z,72.00
2023-04-26T07:55:34.949Z,71.20
2023-04-26T07:58:02.461Z,70.90
2023-04-26T08:00:29.414Z,70.90
2023-04-26T08:02:56.643Z,70.90
2023-04-26T08:05:23.754Z,70.70
2023-04-26T08:07:50.826Z,70.60
2023-04-26T08:10:17.885Z,70.30
2023-04-26T08:12:44.616Z,70.50
2023-04-26T08:15:12.072Z,70.50
2023-04-26T08:17:39.069Z,70.40
2023-04-26T08:20:06.992Z,70.20
2023-04-26T08:22:33.793Z,70.20
2023-04-26T08:25:00.875Z,70.10
2023-04-26T08:27:28.165Z,70.00
2023-04-26T08:29:55.023Z,70.00
2023-04-26T08:32:22.205Z,70.00
2023-04-26T08:34:49.072Z,70.00
2023-04-26T08:37:15.891Z,70.00
2023-04-26T08:39:42.694Z,69.80
2023-04-26T08:42:16.719Z,69.70
2023-04-26T08:44:44.157Z,69.60
2023-04-26T08:47:37.498Z,69.60
2023-04-26T08:50:04.777Z,69.50
2023-04-26T08:52:31.952Z,69.60
2023-04-26T08:54:59.489Z,69.50
2023-04-26T08:57:26.776Z,69.50
2023-04-26T08:59:53.799Z,69.40
2023-04-26T09:02:21.653Z,69.30
2023-04-26T09:04:49.116Z,69.20
2023-04-26T09:07:27.264Z,69.20
2023-04-26T09:09:54.043Z,69.00
2023-04-26T09:12:21.311Z,69.00
2023-04-26T09:14:48.220Z,69.00
2023-04-26T09:17:38.041Z,68.80
2023-04-26T09:20:25.935Z,68.50
2023-04-26T09:23:09.106Z,68.40
2023-04-26T09:25:36.077Z,68.00
2023-04-26T09:28:03.703Z,68.00
2023-04-26T09:30:31.330Z,67.70
2023-04-26T09:33:06.829Z,67.50
2023-04-26T09:35:33.785Z,67.30
2023-04-26T09:38:09.690Z,67.20
2023-04-26T09:40:42.648Z,67.00
2023-04-26T09:43:13.133Z,66.80
2023-04-26T09:45:56.865Z,66.40
2023-04-26T09:48:30.704Z,66.20
2023-04-26T09:51:10.186Z,66.10
2023-04-26T09:53:41.317Z,65.30
2023-04-26T09:56:18.932Z,65.30
2023-04-26T09:59:00.633Z,65.00
2023-04-26T10:01:31.226Z,65.00
2023-04-26T10:03:58.429Z,64.40
2023-04-26T10:06:25.695Z,63.60
2023-04-26T10:08:52.731Z,62.90
2023-04-26T10:11:19.746Z,62.90
2023-04-26T10:13:46.539Z,62.70
2023-04-26T10:16:13.432Z,62.30
2023-04-26T10:18:40.612Z,61.60
2023-04-26T10:21:35.293Z,61.00
2023-04-26T10:24:02.906Z,60.20
2023-04-26T10:26:56.956Z,60.10
2023-04-26T10:29:24.802Z,59.60
2023-04-26T10:32:10.622Z,59.80
2023-04-26T10:34:37.619Z,59.20
2023-04-26T10:37:14.746Z,59.50
2023-04-26T10:39:42.527Z,59.20
2023-04-26T10:42:27.392Z,59.30
2023-04-26T10:45:00.890Z,58.90
2023-04-26T10:47:37.539Z,59.00
2023-04-26T10:50:11.106Z,59.10
2023-04-26T10:53:05.879Z,58.90
2023-04-26T10:55:51.499Z,58.50
2023-04-26T10:58:28.225Z,58.50
2023-04-26T11:01:04.949Z,58.10
2023-04-26T11:03:32.072Z,57.70
2023-04-26T11:05:59.130Z,57.80
2023-04-26T11:08:31.735Z,57.50
2023-04-26T11:11:02.397Z,57.30
2023-04-26T11:13:32.638Z,57.00
2023-04-26T11:16:07.257Z,56.50
2023-04-26T11:18:34.757Z,56.10
2023-04-26T11:21:01.595Z,56.10
2023-04-26T11:23:29.634Z,55.80
2023-04-26T11:26:00.325Z,55.70
2023-04-26T11:28:27.159Z,55.80
2023-04-26T11:30:54.157Z,55.80
2023-04-26T11:33:24.652Z,55.40
2023-04-26T11:35:52.325Z,55.10
2023-04-26T11:38:22.121Z,54.90
2023-04-26T11:41:02.454Z,54.80
2023-04-26T11:43:32.331Z,54.60
2023-04-26T11:46:02.470Z,54.70
2023-04-26T11:48:30.047Z,54.80
2023-04-26T11:51:00.620Z,54.70
2023-04-26T11:53:40.839Z,54.40
2023-04-26T11:56:20.777Z,54.40
2023-04-26T11:58:48.458Z,54.50
2023-04-26T12:01:41.549Z,54.70
2023-04-26T12:04:10.499Z,54.30
2023-04-26T12:06:44.654Z,54.70
2023-04-26T12:09:12.069Z,54.50
2023-04-26T12:11:39.456Z,54.80
2023-04-26T12:14:07.819Z,54.80
2023-04-26T12:16:37.864Z,54.90
2023-04-26T12:19:06.522Z,54.90
2023-04-26T12:21:43.874Z,55.00
2023-04-26T12:24:29.601Z,54.90
2023-04-26T12:26:56.558Z,54.90
2023-04-26T12:29:23.370Z,54.80
2023-04-26T12:31:50.224Z,54.70
2023-04-26T12:34:17.100Z,54.40
2023-04-26T12:36:44.539Z,54.10
2023-04-26T12:39:13.269Z,53.60
2023-04-26T12:41:41.150Z,53.10
2023-04-26T12:44:08.608Z,53.30
2023-04-26T12:46:36.030Z,52.60
2023-04-26T12:49:03.538Z,52.50
2023-04-26T12:51:31.953Z,52.40
2023-04-26T12:53:59.010Z,52.20
2023-04-26T12:56:25.870Z,52.00
2023-04-26T12:58:52.636Z,51.90
2023-04-26T13:01:19.559Z,51.90
2023-04-26T13:03:46.764Z,51.90
2023-04-26T13:06:13.727Z,51.90
2023-04-26T13:08:41.672Z,51.70
2023-04-26T13:11:08.474Z,51.80
2023-04-26T13:13:43.186Z,51.80
2023-04-26T13:16:12.440Z,51.80
2023-04-26T13:18:40.226Z,51.80
2023-04-26T13:21:07.142Z,51.80
2023-04-26T13:23:33.975Z,51.90
2023-04-26T13:26:00.758Z,52.00
2023-04-26T13:28:27.577Z,52.10
2023-04-26T13:30:55.795Z,52.10
2023-04-26T13:33:22.910Z,51.90
2023-04-26T13:35:49.969Z,52.10
2023-04-26T13:38:17.327Z,52.20
2023-04-26T13:40:44.809Z,52.30
2023-04-26T13:43:11.730Z,52.40
2023-04-26T13:45:38.787Z,52.20
2023-04-26T13:48:05.897Z,52.30
2023-04-26T13:50:32.792Z,52.20
2023-04-26T13:53:00.050Z,52.00
2023-04-26T13:55:26.845Z,51.90
2023-04-26T13:57:53.824Z,51.30
2023-04-26T14:00:21.149Z,51.20
2023-04-26T14:02:48.596Z,50.90
2023-04-26T14:05:16.611Z,50.80
2023-04-26T14:07:43.576Z,50.20
2023-04-26T14:10:10.697Z,50.20
2023-04-26T14:12:37.500Z,50.40
2023-04-26T14:15:06.101Z,50.40
2023-04-26T14:17:33.240Z,49.90
2023-04-26T14:20:00.210Z,49.50
2023-04-26T14:22:27.239Z,49.20
2023-04-26T14:24:54.026Z,49.00
2023-04-26T14:27:20.995Z,48.70
2023-04-26T14:29:47.833Z,48.50
2023-04-26T14:32:14.928Z,48.30
2023-04-26T14:34:42.623Z,48.30
2023-04-26T14:37:09.447Z,47.80
2023-04-26T14:39:37.222Z,47.40
2023-04-26T14:42:04.362Z,47.50
2023-04-26T14:44:31.229Z,47.70
2023-04-26T14:46:58.315Z,47.50
2023-04-26T14:49:25.319Z,47.50
2023-04-26T14:51:53.707Z,47.70
2023-04-26T14:54:21.115Z,47.70
2023-04-26T14:56:48.494Z,47.80
2023-04-26T14:59:15.478Z,48.00
2023-04-26T15:01:42.493Z,48.30
2023-04-26T15:04:09.394Z,48.60
2023-04-26T15:06:36.547Z,49.20
2023-04-26T15:09:04.355Z,49.70
2023-04-26T15:11:31.458Z,50.30
2023-04-26T15:13:58.259Z,50.50
2023-04-26T15:16:25.187Z,51.00
2023-04-26T15:18:52.117Z,51.40
2023-04-26T15:21:21.266Z,51.50
2023-04-26T15:23:48.133Z,51.80
2023-04-26T15:26:14.930Z,52.00
2023-04-26T15:28:41.755Z,53.40
2023-04-26T15:31:09.516Z,53.70
2023-04-26T15:33:36.641Z,53.10
2023-04-26T15:36:03.703Z,52.80
2023-04-26T15:38:30.696Z,52.60
2023-04-26T15:40:59.037Z,52.80
2023-04-26T15:43:25.928Z,53.10
2023-04-26T15:45:53.034Z,53.20
2023-04-26T15:48:19.797Z,53.50
2023-04-26T15:50:46.617Z,53.50
2023-04-26T15:53:13.380Z,54.00
2023-04-26T15:55:40.322Z,53.40
2023-04-26T15:58:07.698Z,53.40
2023-04-26T16:00:36.380Z,53.40
2023-04-26T16:03:03.462Z,53.30
2023-04-26T16:05:31.764Z,53.80
2023-04-26T16:07:59.711Z,53.30
2023-04-26T16:10:26.704Z,53.40
2023-04-26T16:12:53.564Z,53.40
2023-04-26T16:15:20.671Z,53.50
2023-04-26T16:17:47.568Z,53.50
2023-04-26T16:20:15.227Z,53.60
2023-04-26T16:22:45.030Z,53.70
2023-04-26T16:25:12.110Z,53.70
2023-04-26T16:27:38.965Z,54.00
2023-04-26T16:30:06.443Z,54.20
2023-04-26T16:32:34.078Z,54.20
2023-04-26T16:35:01.090Z,54.20
2023-04-26T16:37:28.008Z,54.30
2023-04-26T16:39:55.911Z,54.30
2023-04-26T16:42:22.993Z,54.50
2023-04-26T16:44:49.873Z,54.80
2023-04-26T16:47:16.749Z,54.90
2023-04-26T16:49:43.498Z,55.50
2023-04-26T16:52:10.438Z,56.90
2023-04-26T16:54:37.363Z,56.90
2023-04-26T16:57:04.545Z,56.70
2023-04-26T16:59:31.429Z,56.90
2023-04-26T17:01:58.337Z,56.70
2023-04-26T17:04:26.360Z,56.90
2023-04-26T17:06:54.488Z,58.10
2023-04-26T17:09:21.473Z,57.90
2023-04-26T17:11:49.855Z,57.60
2023-04-26T17:14:16.764Z,57.00
2023-04-26T17:16:43.839Z,56.60
2023-04-26T17:19:10.945Z,56.40
2023-04-26T17:21:37.809Z,56.40
2023-04-26T17:24:04.766Z,56.40
2023-04-26T17:26:31.685Z,56.40
2023-04-26T17:28:58.621Z,56.40
2023-04-26T17:31:25.608Z,56.50
2023-04-26T17:33:52.477Z,57.20
2023-04-26T17:36:19.490Z,56.70
2023-04-26T17:38:46.320Z,56.70
2023-04-26T17:41:13.544Z,56.70
2023-04-26T17:43:40.539Z,57.00
2023-04-26T17:46:07.519Z,57.40
2023-04-26T17:48:34.385Z,57.80
2023-04-26T17:51:01.309Z,58.00
2023-04-26T17:53:28.172Z,58.30
2023-04-26T17:55:55.352Z,58.60
2023-04-26T17:58:24.025Z,58.80
2023-04-26T18:00:50.906Z,59.00
2023-04-26T18:03:17.963Z,59.30
2023-04-26T18:05:45.081Z,59.70
2023-04-26T18:08:11.855Z,59.90
2023-04-26T18:10:38.701Z,60.20
2023-04-26T18:13:05.605Z,60.40
2023-04-26T18:15:32.493Z,60.60
2023-04-26T18:17:59.353Z,60.80
2023-04-26T18:20:26.923Z,60.90
2023-04-26T18:22:53.722Z,61.00
2023-04-26T18:25:20.509Z,61.20
2023-04-26T18:27:47.324Z,61.50
2023-04-26T18:30:14.222Z,62.30
2023-04-26T18:32:41.322Z,61.80
2023-04-26T18:35:09.132Z,62.00
2023-04-26T18:37:36.062Z,62.20
2023-04-26T18:40:04.828Z,62.30
2023-04-26T18:42:31.648Z,62.50
2023-04-26T18:44:59.414Z,62.60
2023-04-26T18:47:26.797Z,62.90
2023-04-26T18:49:53.609Z,63.10
2023-04-26T18:52:20.426Z,63.30
2023-04-26T18:54:47.234Z,63.40
2023-04-26T18:57:14.793Z,63.50
2023-04-26T18:59:41.606Z,63.50
2023-04-26T19:02:08.674Z,63.70
2023-04-26T19:04:35.783Z,63.80
2023-04-26T19:07:02.791Z,64.10
2023-04-26T19:09:39.855Z,64.30
2023-04-26T19:12:17.589Z,64.40
2023-04-26T19:14:44.473Z,65.00
2023-04-26T19:17:11.351Z,64.50
2023-04-26T19:19:38.224Z,64.70
2023-04-26T19:22:05.156Z,64.90
2023-04-26T19:24:31.993Z,65.20
2023-04-26T19:26:58.794Z,65.30
2023-04-26T19:29:25.778Z,65.50
2023-04-26T19:31:52.658Z,65.70
2023-04-26T19:34:20.119Z,65.80
2023-04-26T19:36:47.745Z,66.00
2023-04-26T19:39:16.822Z,66.20
2023-04-26T19:41:44.242Z,66.40
2023-04-26T19:44:13.110Z,66.60
2023-04-26T19:46:41.369Z,66.80
2023-04-26T19:49:08.920Z,66.90
2023-04-26T19:51:39.356Z,67.00
2023-04-26T19:54:06.514Z,67.20
2023-04-26T19:56:33.549Z,67.40
2023-04-26T19:59:01.138Z,67.40
2023-04-26T20:01:30.295Z,67.60
2023-04-26T20:03:57.949Z,67.80
2023-04-26T20:06:25.567Z,67.80
2023-04-26T20:08:53.496Z,67.90
2023-04-26T20:11:20.395Z,67.90
2023-04-26T20:13:48.419Z,68.00
2023-04-26T20:16:15.664Z,68.00
2023-04-26T20:18:43.807Z,68.10
2023-04-26T20:21:15.467Z,68.30
2023-04-26T20:23:43.011Z,68.50
2023-04-26T20:26:11.391Z,68.60
2023-04-26T20:28:42.534Z,68.70
2023-04-26T20:31:09.604Z,68.70
2023-04-26T20:33:36.731Z,68.80
2023-04-26T20:36:04.889Z,68.80
2023-04-26T20:38:32.108Z,69.00
2023-04-26T20:41:00.476Z,69.10
2023-04-26T20:43:30.260Z,69.00
2023-04-26T20:45:57.625Z,69.10
2023-04-26T20:48:26.084Z,69.20
2023-04-26T20:50:58.801Z,69.20
2023-04-26T20:53:25.904Z,69.40
2023-04-26T20:55:53.748Z,69.40
2023-04-26T20:58:20.804Z,69.40
2023-04-26T21:00:55.187Z,69.40
2023-04-26T21:03:22.783Z,69.50
2023-04-26T21:05:49.809Z,69.50
2023-04-26T21:08:16.679Z,69.70
2023-04-26T21:10:43.602Z,69.80
2023-04-26T21:13:10.399Z,69.80
2023-04-26T21:15:37.319Z,69.70
2023-04-26T21:18:04.461Z,69.70
2023-04-26T21:20:31.450Z,69.50
2023-04-26T21:22:58.340Z,69.30
2023-04-26T21:25:25.143Z,69.10
2023-04-26T21:27:51.931Z,69.00
2023-04-26T21:30:18.824Z,68.90
2023-04-26T21:32:45.991Z,68.90
2023-04-26T21:35:13.069Z,69.00
2023-04-26T21:37:39.913Z,69.00
2023-04-26T21:40:08.079Z,69.00
2023-04-26T21:42:34.909Z,69.00
2023-04-26T21:45:01.771Z,68.90
2023-04-26T21:47:28.637Z,68.90
2023-04-26T21:49:55.799Z,69.00
2023-04-26T21:52:22.580Z,69.00
2023-04-26T21:54:50.644Z,69.00
2023-04-26T21:57:21.522Z,69.00
2023-04-26T21:59:50.047Z,69.10
2023-04-26T22:02:17.089Z,69.10
2023-04-26T22:04:44.001Z,69.00
2023-04-26T22:07:10.910Z,68.90
2023-04-26T22:09:37.661Z,68.90
2023-04-26T22:12:04.653Z,69.00
2023-04-26T22:14:31.645Z,68.90
2023-04-26T22:16:58.435Z,69.00
2023-04-26T22:19:25.266Z,69.00
2023-04-26T22:21:53.389Z,69.10
2023-04-26T22:24:21.834Z,69.30
2023-04-26T22:26:48.600Z,69.30
2023-04-26T22:29:15.605Z,69.40
2023-04-26T22:31:42.475Z,69.60
2023-04-26T22:34:09.357Z,69.70
2023-04-26T22:36:36.270Z,69.80
2023-04-26T22:39:03.241Z,69.90
2023-04-26T22:41:30.165Z,70.10
2023-04-26T22:43:57.313Z,70.30
2023-04-26T22:46:24.602Z,70.50
2023-04-26T22:48:51.428Z,70.60
2023-04-26T22:51:18.268Z,71.30
2023-04-26T22:53:45.023Z,70.90
2023-04-26T22:56:11.848Z,71.00
2023-04-26T22:58:38.722Z,71.20
2023-04-26T23:01:05.637Z,71.50
2023-04-26T23:03:35.928Z,71.80
2023-04-26T23:06:06.261Z,72.10
2023-04-26T23:08:33.059Z,72.20
2023-04-26T23:11:00.149Z,72.40
2023-04-26T23:13:27.013Z,72.60
2023-04-26T23:15:53.857Z,72.90
2023-04-26T23:18:20.786Z,73.10
2023-04-26T23:20:47.737Z,73.40
2023-04-26T23:23:14.470Z,73.60
2023-04-26T23:25:42.178Z,73.80
2023-04-26T23:28:09.186Z,74.10
2023-04-26T23:30:36.197Z,74.20
2023-04-26T23:33:03.191Z,74.40
2023-04-26T23:35:30.163Z,74.60
2023-04-26T23:37:57.183Z,74.80
2023-04-26T23:40:24.113Z,75.00
2023-04-26T23:42:51.258Z,75.10
2023-04-26T23:45:19.225Z,75.30
2023-04-26T23:47:46.186Z,75.50
2023-04-26T23:50:13.012Z,75.70
2023-04-26T23:52:39.820Z,75.90
2023-04-26T23:55:08.151Z,76.10
2023-04-26T23:57:35.127Z,76.20
